Sunday, November 23, 2014

  Over 45,111,151 pages visited!

GMT:
17:19
PACIFIC:
10:19:37 AM
MOUNTAIN:
11:19:37 AM

CENTRAL:
12:19:37 PM

EASTERN:
1:19:37 PM
ATLANTIC:
2:19:37 PM
NEWFOUNDLAND:
2:49:37 PM
 

 


Watches/Warnings
Current Conditions
Radar/Satellite
Lightning Images


Current Weather Conditions For TORONTO PEARSON,ON

 


Light Rain Showers
 

Temperature: 08C / 46F
Dew Point: 07 C / 45F
Humidity: 93 %
Pressure: 1014.2 mbs (29.95 inches)
Visibility: 19.3 kms (12 SM)
Wind Direction: S (180)
Wind Speed: 13 Km/h (8.1 MPH)
Max Wind Gust: No Gusts
Humidex: N/A
WindChill: N/A
    

Observation Information

Date/Time: Sunday, November 23, 2014 @ 18:00Z
Local Time:
Metar Coded: CYYZ 231800Z 18007KT 12SM -SHRA BKN011 BKN028 OVC075 08/07 A2994 RMK SC5SC2AC1 SLP142

 

 

                   1997-2014 The Ontario Weather Page